Time;durP1;ratioP1;P1;durP2;ratioP2;P2;SDS_P1;SDS_P2;PMS_P1;PMS_P2;Temp;Humidity;BMP_temperature;BMP_pressure;BME280_temperature;BME280_humidity;BME280_pressure;Samples;Min_cycle;Max_cycle;Signal;HPM_P1;HPM_P2
2024/04/20 00:00:20;;;;;;;5.13;1.50;;;6.30;99.90;;;;;;5378221;26;20467;-70
2024/04/20 00:02:46;;;;;;;3.57;1.30;;;6.40;99.90;;;;;;5372355;26;20334;-70
2024/04/20 00:05:12;;;;;;;6.33;1.57;;;6.40;99.90;;;;;;5379614;26;20720;-70
2024/04/20 00:07:38;;;;;;;1.77;1.20;;;6.50;99.90;;;;;;5379455;26;20213;-70
2024/04/20 00:10:04;;;;;;;1.57;1.20;;;6.50;99.90;;;;;;5378596;26;20527;-70
2024/04/20 00:12:30;;;;;;;1.33;1.20;;;6.50;99.90;;;;;;5378885;26;20210;-69
2024/04/20 00:14:56;;;;;;;1.13;1.03;;;6.50;99.90;;;;;;5379454;26;20447;-69
2024/04/20 00:17:22;;;;;;;1.10;0.90;;;6.50;99.90;;;;;;5379375;26;20467;-70
2024/04/20 00:19:47;;;;;;;1.43;1.30;;;6.50;99.90;;;;;;5379285;26;20447;-70
2024/04/20 00:22:13;;;;;;;3.83;1.10;;;6.40;99.90;;;;;;5378814;26;20214;-69
2024/04/20 00:24:38;;;;;;;2.00;1.40;;;6.40;99.90;;;;;;5382625;26;20617;-70
2024/04/20 00:27:06;;;;;;;7.80;1.67;;;6.30;99.90;;;;;;5382732;26;20253;-70
2024/04/20 00:29:32;;;;;;;2.60;1.30;;;6.30;99.90;;;;;;5382722;26;20770;-70
2024/04/20 00:31:58;;;;;;;3.27;1.53;;;6.20;99.90;;;;;;5373773;26;20839;-69
2024/04/20 00:34:23;;;;;;;3.13;1.53;;;6.20;99.90;;;;;;5351313;26;20526;-68
2024/04/20 00:36:52;;;;;;;3.17;1.30;;;6.10;99.90;;;;;;5382945;26;20234;-71
2024/04/20 00:39:18;;;;;;;1.30;1.20;;;6.00;99.90;;;;;;5382562;26;20269;-69
2024/04/20 00:41:48;;;;;;;1.67;1.03;;;6.00;99.90;;;;;;5381854;26;20507;-70
2024/04/20 00:44:13;;;;;;;2.43;1.30;;;5.90;99.90;;;;;;5382538;26;20866;-70
2024/04/20 00:46:40;;;;;;;3.00;2.03;;;5.90;99.90;;;;;;5382488;26;20456;-70
2024/04/20 00:49:07;;;;;;;2.60;1.57;;;5.80;99.90;;;;;;5351502;26;20269;-70
2024/04/20 00:51:32;;;;;;;1.13;1.00;;;5.80;99.90;;;;;;5381903;26;20456;-71
2024/04/20 00:53:59;;;;;;;3.23;1.73;;;5.70;99.90;;;;;;5382686;26;20660;-70
2024/04/20 00:56:26;;;;;;;1.10;0.80;;;5.70;99.90;;;;;;5382283;26;20214;-70
2024/04/20 00:58:52;;;;;;;1.37;1.10;;;5.70;99.90;;;;;;5382274;26;20500;-70
2024/04/20 01:01:18;;;;;;;2.33;1.00;;;5.60;99.90;;;;;;5378519;26;20808;-69
2024/04/20 01:03:43;;;;;;;2.90;1.40;;;5.60;99.90;;;;;;5376697;26;20225;-70
2024/04/20 01:06:09;;;;;;;1.43;1.20;;;5.60;99.90;;;;;;5382381;26;20257;-70
2024/04/20 01:08:35;;;;;;;7.43;1.23;;;5.50;99.90;;;;;;5382212;26;20314;-69
2024/04/20 01:11:01;;;;;;;2.07;1.17;;;5.60;99.90;;;;;;5350945;26;20221;-70
2024/04/20 01:13:27;;;;;;;2.87;2.20;;;5.50;99.90;;;;;;5374287;26;20267;-70
2024/04/20 01:15:53;;;;;;;1.80;1.50;;;5.50;99.90;;;;;;5380912;26;20455;-70
2024/04/20 01:18:19;;;;;;;3.83;2.07;;;5.50;99.90;;;;;;5351236;26;21022;-70
2024/04/20 01:20:44;;;;;;;2.73;1.10;;;5.50;99.90;;;;;;5381705;26;20248;-69
2024/04/20 01:23:10;;;;;;;1.87;1.30;;;5.50;99.90;;;;;;5381861;26;20252;-70
2024/04/20 01:25:40;;;;;;;3.47;1.70;;;5.50;99.90;;;;;;5382196;26;20221;-70
2024/04/20 01:28:06;;;;;;;4.43;1.30;;;5.40;99.90;;;;;;5381997;26;20217;-70
2024/04/20 01:30:31;;;;;;;3.70;1.03;;;5.40;99.90;;;;;;5381367;26;20570;-70
2024/04/20 01:32:57;;;;;;;7.47;1.60;;;5.40;99.90;;;;;;5381684;26;20607;-69
2024/04/20 01:35:22;;;;;;;0.93;0.83;;;5.40;99.90;;;;;;5380274;26;20248;-69
2024/04/20 01:37:48;;;;;;;2.27;1.10;;;5.40;99.90;;;;;;5381742;26;20209;-70
2024/04/20 01:40:13;;;;;;;1.10;0.90;;;5.40;99.90;;;;;;5381323;26;20256;-70
2024/04/20 01:42:39;;;;;;;1.67;1.00;;;5.40;99.90;;;;;;5381646;26;20213;-70
2024/04/20 01:45:05;;;;;;;1.33;1.23;;;5.40;99.90;;;;;;5381779;26;20256;-70
2024/04/20 01:47:31;;;;;;;2.07;1.73;;;5.40;99.90;;;;;;5381391;26;20813;-69
2024/04/20 01:49:57;;;;;;;4.40;0.93;;;5.40;99.90;;;;;;5381604;26;20261;-70
2024/04/20 01:52:23;;;;;;;1.73;1.03;;;5.30;99.90;;;;;;5350136;26;20891;-69
2024/04/20 01:54:48;;;;;;;4.50;1.53;;;5.30;99.90;;;;;;5381417;26;20226;-69
2024/04/20 01:57:14;;;;;;;2.20;1.30;;;5.30;99.90;;;;;;5381057;26;20522;-70
2024/04/20 01:59:40;;;;;;;2.03;1.43;;;5.20;99.90;;;;;;5381381;26;20284;-70
2024/04/20 02:02:05;;;;;;;11.37;1.67;;;5.20;99.90;;;;;;5380846;26;20233;-70
2024/04/20 02:04:31;;;;;;;2.50;1.00;;;5.20;99.90;;;;;;5381463;26;20244;-69
2024/04/20 02:06:56;;;;;;;1.93;1.23;;;5.20;99.90;;;;;;5381602;26;20620;-70
2024/04/20 02:09:22;;;;;;;4.10;1.03;;;5.10;99.90;;;;;;5381429;26;20222;-70
2024/04/20 02:11:47;;;;;;;1.10;1.00;;;5.10;99.90;;;;;;5381051;26;20221;-70
2024/04/20 02:14:13;;;;;;;1.33;0.90;;;5.10;99.90;;;;;;5381645;26;20652;-69
2024/04/20 02:16:38;;;;;;;9.47;1.60;;;5.10;99.90;;;;;;5381260;26;20697;-69
2024/04/20 02:19:04;;;;;;;5.53;1.40;;;5.10;99.90;;;;;;5381495;26;20214;-70
2024/04/20 02:21:29;;;;;;;1.30;1.20;;;5.10;99.90;;;;;;5380915;26;20225;-70
2024/04/20 02:23:55;;;;;;;4.20;1.50;;;5.10;99.90;;;;;;5381235;26;20213;-70
2024/04/20 02:26:20;;;;;;;2.50;1.47;;;5.10;99.90;;;;;;5381354;26;20615;-70
2024/04/20 02:28:46;;;;;;;2.50;1.40;;;5.20;99.90;;;;;;5381108;26;20692;-70
2024/04/20 02:31:11;;;;;;;1.30;1.20;;;5.30;99.90;;;;;;5380403;26;20717;-69
2024/04/20 02:33:39;;;;;;;3.57;1.37;;;5.40;99.90;;;;;;5381068;26;20314;-69
2024/04/20 02:36:05;;;;;;;1.60;1.37;;;5.50;99.90;;;;;;5381056;26;20569;-71
2024/04/20 02:38:30;;;;;;;2.67;1.43;;;5.60;99.90;;;;;;5380968;26;20539;-70
2024/04/20 02:40:56;;;;;;;7.13;2.63;;;5.60;99.90;;;;;;5380493;26;20272;-70
2024/04/20 02:43:21;;;;;;;1.70;1.30;;;5.70;99.90;;;;;;5380865;26;20264;-70
2024/04/20 02:45:48;;;;;;;3.40;1.83;;;5.80;99.90;;;;;;5380232;26;20736;-70
2024/04/20 02:48:13;;;;;;;1.30;1.20;;;5.80;99.90;;;;;;5380918;26;20696;-71
2024/04/20 02:50:39;;;;;;;1.70;1.60;;;5.80;99.90;;;;;;5380447;26;20479;-70
2024/04/20 02:53:04;;;;;;;2.37;1.33;;;5.90;99.90;;;;;;5380780;26;20400;-71
2024/04/20 02:55:30;;;;;;;1.20;1.10;;;6.00;99.90;;;;;;5380862;26;20688;-69
2024/04/20 02:57:55;;;;;;;2.87;1.17;;;6.00;99.90;;;;;;5380722;26;20259;-70
2024/04/20 03:00:21;;;;;;;1.93;1.73;;;6.10;99.90;;;;;;5349190;26;21193;-70
2024/04/20 03:02:46;;;;;;;6.57;1.57;;;6.20;99.90;;;;;;5380155;26;20307;-69
2024/04/20 03:05:12;;;;;;;1.93;1.23;;;6.20;99.90;;;;;;5380069;26;20302;-69
2024/04/20 03:07:38;;;;;;;3.20;1.50;;;6.20;99.90;;;;;;5380600;26;20213;-70
2024/04/20 03:10:04;;;;;;;1.90;1.50;;;6.30;99.90;;;;;;5380515;26;20675;-70
2024/04/20 03:12:29;;;;;;;12.20;1.70;;;6.40;99.90;;;;;;5380106;26;20689;-70
2024/04/20 03:14:55;;;;;;;10.83;1.67;;;6.40;99.90;;;;;;5380430;26;20551;-69
2024/04/20 03:17:20;;;;;;;3.00;1.70;;;6.40;99.90;;;;;;5379999;26;20225;-69
2024/04/20 03:19:46;;;;;;;2.10;1.40;;;6.40;99.90;;;;;;5349344;26;20285;-70
2024/04/20 03:22:12;;;;;;;4.03;1.67;;;6.40;99.90;;;;;;5380191;26;20217;-70
2024/04/20 03:24:41;;;;;;;10.10;1.70;;;6.40;99.90;;;;;;5380344;26;20456;-70
2024/04/20 03:27:06;;;;;;;3.87;1.40;;;6.50;99.90;;;;;;5380173;26;20311;-70
2024/04/20 03:29:32;;;;;;;2.83;1.63;;;6.50;99.90;;;;;;5380126;26;20447;-70
2024/04/20 03:31:58;;;;;;;1.60;1.50;;;6.50;99.90;;;;;;5379837;26;20821;-70
2024/04/20 03:34:24;;;;;;;4.13;2.40;;;6.50;99.90;;;;;;5349139;26;20229;-70
2024/04/20 03:36:49;;;;;;;2.00;1.83;;;6.50;99.90;;;;;;5380246;26;20213;-70
2024/04/20 03:39:16;;;;;;;2.10;1.70;;;6.50;99.90;;;;;;5380324;26;20623;-69
2024/04/20 03:41:43;;;;;;;4.67;1.80;;;6.50;99.90;;;;;;5379563;26;20272;-69
2024/04/20 03:44:08;;;;;;;7.93;1.37;;;6.60;99.90;;;;;;5380060;26;20444;-68
2024/04/20 03:46:34;;;;;;;1.17;0.97;;;6.50;99.90;;;;;;5379992;26;20578;-70
2024/04/20 03:49:00;;;;;;;2.03;1.10;;;6.60;99.90;;;;;;5380146;26;20260;-70
2024/04/20 03:51:25;;;;;;;2.13;1.10;;;6.60;99.90;;;;;;5379519;26;20222;-70
2024/04/20 03:53:51;;;;;;;2.00;1.40;;;6.60;99.90;;;;;;5379843;26;20209;-70
2024/04/20 03:56:16;;;;;;;1.70;1.60;;;6.60;99.90;;;;;;5379830;26;20307;-69
2024/04/20 03:58:42;;;;;;;2.20;1.57;;;6.70;99.90;;;;;;5381755;26;20220;-72
2024/04/20 04:01:08;;;;;;;2.40;1.43;;;6.70;99.90;;;;;;5382174;26;20272;-70
2024/04/20 04:03:33;;;;;;;2.10;1.40;;;6.70;99.90;;;;;;5382866;26;20588;-69
2024/04/20 04:05:59;;;;;;;2.70;1.80;;;6.80;99.90;;;;;;5382915;26;20209;-70
2024/04/20 04:08:25;;;;;;;3.93;1.47;;;6.80;99.90;;;;;;5383035;26;20902;-69
2024/04/20 04:10:51;;;;;;;1.43;1.33;;;6.80;99.90;;;;;;5382566;26;20463;-69
2024/04/20 04:13:17;;;;;;;7.00;1.80;;;6.80;99.90;;;;;;5352130;26;20484;-70
2024/04/20 04:15:43;;;;;;;3.20;1.60;;;6.90;99.90;;;;;;5382728;26;20221;-70
2024/04/20 04:18:10;;;;;;;1.67;1.47;;;6.90;99.90;;;;;;5382914;26;20210;-70
2024/04/20 04:20:36;;;;;;;1.40;1.07;;;6.90;99.90;;;;;;5382393;26;20885;-70
2024/04/20 04:23:02;;;;;;;4.23;1.63;;;7.00;99.90;;;;;;5382763;26;20439;-69
2024/04/20 04:25:30;;;;;;;1.27;1.10;;;7.00;99.90;;;;;;5382886;26;21081;-69
2024/04/20 04:27:59;;;;;;;2.57;1.90;;;7.00;99.90;;;;;;5382947;26;20519;-70
2024/04/20 04:30:25;;;;;;;1.63;1.47;;;7.10;99.90;;;;;;5382249;26;20475;-69
2024/04/20 04:32:50;;;;;;;3.30;1.97;;;7.10;99.90;;;;;;5382597;26;20435;-69
2024/04/20 04:35:16;;;;;;;4.47;1.77;;;7.10;99.90;;;;;;5382585;26;20444;-70
2024/04/20 04:37:42;;;;;;;5.63;1.37;;;7.10;99.90;;;;;;5382744;26;20217;-68
2024/04/20 04:40:08;;;;;;;6.60;1.50;;;7.10;99.90;;;;;;5382637;26;20318;-69
2024/04/20 04:42:33;;;;;;;1.20;1.10;;;7.10;99.90;;;;;;5382256;26;20210;-68
2024/04/20 04:44:59;;;;;;;1.53;1.43;;;7.10;99.90;;;;;;5382741;26;20487;-72
2024/04/20 04:47:25;;;;;;;4.93;1.73;;;7.00;99.90;;;;;;5382631;26;20221;-69
2024/04/20 04:49:51;;;;;;;1.60;1.50;;;7.00;99.90;;;;;;5382384;26;20210;-70
2024/04/20 04:52:17;;;;;;;1.07;0.90;;;7.00;99.90;;;;;;5382066;26;21034;-69
2024/04/20 04:54:43;;;;;;;3.53;1.80;;;7.00;99.90;;;;;;5382509;26;20693;-71
2024/04/20 04:57:09;;;;;;;2.63;1.10;;;7.00;99.90;;;;;;5382659;26;20777;-69
2024/04/20 04:59:35;;;;;;;1.10;1.00;;;7.00;99.90;;;;;;5382365;26;20451;-69
2024/04/20 05:02:01;;;;;;;1.20;1.07;;;6.90;99.90;;;;;;5381793;26;20456;-69
2024/04/20 05:04:30;;;;;;;1.27;1.10;;;6.90;99.90;;;;;;5382057;26;20440;-69
2024/04/20 05:06:55;;;;;;;1.73;0.90;;;6.90;99.90;;;;;;5381763;26;20447;-70
2024/04/20 05:09:21;;;;;;;1.60;1.00;;;6.90;99.90;;;;;;5381996;26;21030;-70
2024/04/20 05:11:48;;;;;;;1.50;1.03;;;7.00;99.90;;;;;;5381785;26;20267;-69
2024/04/20 05:14:13;;;;;;;1.20;1.00;;;7.00;99.90;;;;;;5381955;26;20261;-70
2024/04/20 05:16:40;;;;;;;1.47;1.07;;;7.00;99.90;;;;;;5382037;26;20555;-70
2024/04/20 05:19:05;;;;;;;1.37;1.27;;;7.00;99.90;;;;;;5382111;26;20213;-70
2024/04/20 05:21:31;;;;;;;2.10;1.13;;;7.00;99.90;;;;;;5379878;26;20556;-70
2024/04/20 05:23:59;;;;;;;1.50;1.40;;;7.00;99.90;;;;;;5382123;26;20545;-70
2024/04/20 05:26:25;;;;;;;1.60;1.10;;;7.10;99.90;;;;;;5382153;26;20704;-70
2024/04/20 05:28:51;;;;;;;2.50;1.43;;;7.10;99.90;;;;;;5381761;26;20558;-69
2024/04/20 05:31:16;;;;;;;1.10;1.00;;;7.10;99.90;;;;;;5381393;26;20452;-70
2024/04/20 05:33:43;;;;;;;3.37;1.13;;;7.20;99.90;;;;;;5382013;26;20214;-70
2024/04/20 05:36:08;;;;;;;3.10;0.87;;;7.20;99.90;;;;;;5381906;26;20214;-70
2024/04/20 05:38:34;;;;;;;1.00;0.90;;;7.30;99.90;;;;;;5381069;26;20579;-70
2024/04/20 05:41:03;;;;;;;1.53;1.00;;;7.30;99.90;;;;;;5381332;26;20318;-70
2024/04/20 05:43:29;;;;;;;2.40;1.23;;;7.40;99.90;;;;;;5381560;26;20209;-70
2024/04/20 05:45:54;;;;;;;1.40;1.30;;;7.40;99.90;;;;;;5381577;26;20452;-71
2024/04/20 05:48:20;;;;;;;2.10;1.57;;;7.50;99.90;;;;;;5350622;26;20214;-70
2024/04/20 05:50:45;;;;;;;1.87;1.67;;;7.50;99.90;;;;;;5381296;26;20222;-70
2024/04/20 05:53:11;;;;;;;1.70;1.13;;;7.60;99.90;;;;;;5350697;26;20222;-70
2024/04/20 05:55:37;;;;;;;3.00;1.30;;;7.60;99.90;;;;;;5381608;26;20217;-70
2024/04/20 05:58:02;;;;;;;2.60;1.50;;;7.60;99.90;;;;;;5381456;26;20209;-70
2024/04/20 06:00:28;;;;;;;3.00;1.27;;;7.60;99.90;;;;;;5381013;26;20276;-70
2024/04/20 06:02:53;;;;;;;1.53;1.30;;;7.70;99.90;;;;;;5381331;26;20213;-70
2024/04/20 06:05:19;;;;;;;1.40;1.30;;;7.70;99.90;;;;;;5381186;26;20214;-69
2024/04/20 06:07:45;;;;;;;1.63;1.53;;;7.80;99.90;;;;;;5381432;26;20213;-71
2024/04/20 06:10:10;;;;;;;2.60;1.30;;;7.90;99.90;;;;;;5381474;26;20252;-71
2024/04/20 06:12:36;;;;;;;1.23;0.97;;;8.00;99.90;;;;;;5380783;26;20432;-70
2024/04/20 06:15:01;;;;;;;1.40;1.23;;;8.10;99.90;;;;;;5381200;26;20256;-70
2024/04/20 06:17:27;;;;;;;3.57;1.30;;;8.10;99.90;;;;;;5381228;26;20600;-69
2024/04/20 06:19:53;;;;;;;2.43;1.03;;;8.20;99.90;;;;;;5380892;26;20256;-70
2024/04/20 06:22:18;;;;;;;3.10;1.20;;;8.30;99.90;;;;;;5380139;26;20323;-70
2024/04/20 06:24:47;;;;;;;1.30;1.20;;;8.30;99.90;;;;;;5381241;26;20209;-70
2024/04/20 06:27:12;;;;;;;1.73;1.37;;;8.40;99.90;;;;;;5381122;26;20217;-70
2024/04/20 06:29:38;;;;;;;2.07;1.40;;;8.30;99.90;;;;;;5381107;26;20536;-70
2024/04/20 06:32:03;;;;;;;4.87;1.43;;;8.30;99.90;;;;;;5380698;26;20225;-70
2024/04/20 06:34:30;;;;;;;14.47;1.30;;;8.40;99.90;;;;;;5381115;26;20225;-70
2024/04/20 06:36:55;;;;;;;1.10;1.00;;;8.30;99.90;;;;;;5381439;26;20209;-70
2024/04/20 06:39:21;;;;;;;4.90;1.80;;;8.30;99.90;;;;;;5380959;26;20524;-69
2024/04/20 06:41:46;;;;;;;4.63;1.23;;;8.30;99.90;;;;;;5380741;26;20804;-71
2024/04/20 06:44:12;;;;;;;3.00;1.30;;;8.30;99.90;;;;;;5381249;26;20284;-71
2024/04/20 06:46:37;;;;;;;2.50;1.10;;;8.40;99.90;;;;;;5380857;26;20229;-70
2024/04/20 06:49:03;;;;;;;1.43;1.07;;;8.30;99.90;;;;;;5380893;26;20564;-70
2024/04/20 06:51:31;;;;;;;2.03;1.00;;;8.40;99.90;;;;;;5380628;26;20311;-70
2024/04/20 06:53:57;;;;;;;3.80;1.30;;;8.40;99.90;;;;;;5380390;26;20256;-70
2024/04/20 06:56:23;;;;;;;1.70;1.17;;;8.50;99.90;;;;;;5380209;26;20496;-69
2024/04/20 06:58:49;;;;;;;2.40;1.60;;;8.70;99.90;;;;;;5380768;26;20209;-70
2024/04/20 07:01:15;;;;;;;2.40;1.37;;;8.70;99.90;;;;;;5379855;26;20517;-70
2024/04/20 07:03:41;;;;;;;1.50;0.80;;;8.80;99.90;;;;;;5380876;26;20213;-69
2024/04/20 07:06:07;;;;;;;1.07;0.97;;;8.80;99.90;;;;;;5380958;26;20217;-70
2024/04/20 07:08:32;;;;;;;3.20;1.53;;;8.80;99.90;;;;;;5380561;26;20440;-69
2024/04/20 07:11:04;;;;;;;1.20;0.90;;;8.80;99.90;;;;;;5379845;26;20311;-73
2024/04/20 07:13:32;;;;;;;2.30;1.10;;;8.90;99.90;;;;;;5380485;26;20229;-70
2024/04/20 07:15:57;;;;;;;1.43;0.80;;;9.00;99.90;;;;;;5380358;26;20452;-70
2024/04/20 07:18:23;;;;;;;1.00;0.70;;;9.00;99.90;;;;;;5380462;26;20558;-69
2024/04/20 07:20:48;;;;;;;1.10;0.80;;;9.20;99.90;;;;;;5349029;26;20276;-70
2024/04/20 07:23:14;;;;;;;0.97;0.87;;;9.30;99.90;;;;;;5380199;26;20252;-70
2024/04/20 07:25:41;;;;;;;1.37;0.87;;;9.40;99.90;;;;;;5380089;26;20214;-70
2024/04/20 07:28:06;;;;;;;1.77;1.13;;;9.40;99.90;;;;;;5380108;26;20252;-70
2024/04/20 07:30:32;;;;;;;1.53;0.83;;;9.40;99.90;;;;;;5379775;26;20697;-70
2024/04/20 07:32:57;;;;;;;2.20;0.90;;;9.50;99.90;;;;;;5380127;26;20213;-70
2024/04/20 07:35:23;;;;;;;3.43;1.20;;;9.60;99.90;;;;;;5380096;26;20670;-70
2024/04/20 07:37:48;;;;;;;1.20;0.77;;;9.70;99.90;;;;;;5380112;26;20256;-70
2024/04/20 07:40:14;;;;;;;3.33;1.10;;;9.70;99.90;;;;;;5379378;26;20333;-70
2024/04/20 07:42:40;;;;;;;0.83;0.70;;;9.60;99.90;;;;;;5379970;26;20214;-70
2024/04/20 07:45:05;;;;;;;5.53;0.90;;;9.70;99.90;;;;;;5379841;26;20286;-70
2024/04/20 07:47:31;;;;;;;1.30;1.03;;;9.70;99.90;;;;;;5380035;26;20218;-70
2024/04/20 07:49:56;;;;;;;8.33;1.17;;;9.70;99.90;;;;;;5379829;26;20214;-70
2024/04/20 07:52:22;;;;;;;4.10;1.40;;;9.70;99.90;;;;;;5379640;26;20218;-70
2024/04/20 07:54:47;;;;;;;4.10;2.30;;;9.70;99.90;;;;;;5379797;26;20218;-70
2024/04/20 07:57:14;;;;;;;3.27;1.10;;;9.80;99.90;;;;;;5379803;26;20217;-70
2024/04/20 07:59:40;;;;;;;3.57;1.17;;;9.90;99.90;;;;;;5379704;26;20260;-70
2024/04/20 08:02:09;;;;;;;2.30;0.93;;;10.00;99.90;;;;;;5379045;26;20459;-70
2024/04/20 08:04:35;;;;;;;4.83;1.23;;;9.90;99.90;;;;;;5379844;26;20630;-70
2024/04/20 08:07:01;;;;;;;3.70;1.30;;;10.00;99.90;;;;;;5379927;26;20982;-70
2024/04/20 08:09:26;;;;;;;4.60;1.07;;;10.10;99.90;;;;;;5379525;26;20500;-70
2024/04/20 08:11:52;;;;;;;6.73;1.37;;;10.20;99.90;;;;;;5379272;26;20463;-70
2024/04/20 08:14:18;;;;;;;3.20;1.00;;;10.20;99.90;;;;;;5379591;26;20218;-70
2024/04/20 08:16:43;;;;;;;1.47;1.03;;;10.30;99.90;;;;;;5379531;26;20606;-70
2024/04/20 08:19:09;;;;;;;4.43;0.90;;;10.30;99.90;;;;;;5379475;26;20213;-70
2024/04/20 08:21:34;;;;;;;1.00;0.80;;;10.30;99.90;;;;;;5378898;26;20229;-70
2024/04/20 08:24:00;;;;;;;1.47;1.20;;;10.40;99.90;;;;;;5379207;26;20330;-70
2024/04/20 08:26:26;;;;;;;3.47;1.07;;;10.40;99.90;;;;;;5379271;26;20214;-70
2024/04/20 08:28:52;;;;;;;1.10;0.70;;;10.40;99.90;;;;;;5379204;26;20847;-69
2024/04/20 08:31:18;;;;;;;2.40;0.90;;;10.40;99.90;;;;;;5378592;26;20631;-70
2024/04/20 08:33:43;;;;;;;4.27;1.27;;;10.40;99.90;;;;;;5379155;26;20580;-70
2024/04/20 08:36:09;;;;;;;0.80;0.70;;;10.50;99.90;;;;;;5379210;26;20209;-69
2024/04/20 08:38:34;;;;;;;3.87;1.20;;;10.70;99.90;;;;;;5379016;26;20273;-69
2024/04/20 08:41:03;;;;;;;1.77;1.10;;;10.80;99.90;;;;;;5347967;26;20609;-70
2024/04/20 08:43:29;;;;;;;2.17;1.10;;;11.00;99.90;;;;;;5379245;26;20213;-69
2024/04/20 08:45:57;;;;;;;1.53;0.97;;;11.20;99.90;;;;;;5382371;26;20534;-69
2024/04/20 08:48:25;;;;;;;3.27;1.20;;;11.90;99.90;;;;;;5382461;26;20974;-70
2024/04/20 08:50:54;;;;;;;2.80;1.23;;;12.80;99.90;;;;;;5381625;26;20862;-70
2024/04/20 08:53:20;;;;;;;1.73;1.00;;;13.60;99.90;;;;;;5382313;26;20448;-70
2024/04/20 08:55:48;;;;;;;2.90;1.27;;;14.00;99.90;;;;;;5382428;26;20440;-70
2024/04/20 08:58:15;;;;;;;2.90;1.40;;;14.30;99.90;;;;;;5382018;26;20217;-70
2024/04/20 09:00:42;;;;;;;1.30;0.80;;;14.50;99.90;;;;;;5381923;26;20538;-70
2024/04/20 09:03:08;;;;;;;3.60;0.93;;;14.60;99.90;;;;;;5382271;26;20550;-70
2024/04/20 09:05:34;;;;;;;2.67;1.00;;;14.60;99.90;;;;;;5382261;26;20444;-70
2024/04/20 09:08:00;;;;;;;1.67;0.80;;;14.50;99.90;;;;;;5382215;26;20447;-70
2024/04/20 09:10:26;;;;;;;3.83;1.47;;;14.30;99.90;;;;;;5381875;26;20230;-70
2024/04/20 09:12:51;;;;;;;7.33;1.37;;;14.10;99.90;;;;;;5382315;26;20439;-70
2024/04/20 09:15:19;;;;;;;2.90;1.57;;;13.80;99.90;;;;;;5382226;26;20553;-69
2024/04/20 09:17:45;;;;;;;2.97;0.90;;;13.50;99.90;;;;;;5382158;26;20704;-70
2024/04/20 09:20:12;;;;;;;2.07;1.00;;;13.30;99.90;;;;;;5381885;26;20513;-70
2024/04/20 09:22:38;;;;;;;2.07;0.93;;;13.20;99.90;;;;;;5381503;26;20213;-69
2024/04/20 09:25:05;;;;;;;1.63;0.93;;;13.20;99.90;;;;;;5382085;26;20448;-70
2024/04/20 09:27:31;;;;;;;0.80;0.70;;;13.20;99.90;;;;;;5381986;26;20452;-69
2024/04/20 09:30:03;;;;;;;2.07;0.80;;;13.10;99.90;;;;;;5351220;26;20578;-70
2024/04/20 09:32:30;;;;;;;4.53;1.20;;;13.00;99.90;;;;;;5381591;26;20503;-69
2024/04/20 09:34:56;;;;;;;1.73;0.90;;;12.90;99.90;;;;;;5381878;26;20490;-69
2024/04/20 09:37:22;;;;;;;2.80;0.80;;;12.90;99.90;;;;;;5381824;26;20448;-69
2024/04/20 09:39:47;;;;;;;1.40;1.07;;;13.30;99.90;;;;;;5381892;26;20260;-70
2024/04/20 09:42:16;;;;;;;1.17;0.80;;;13.60;99.90;;;;;;5381260;26;20755;-70
2024/04/20 09:44:43;;;;;;;1.50;1.03;;;13.80;99.90;;;;;;5381788;26;20221;-70
2024/04/20 09:47:11;;;;;;;1.27;0.80;;;13.80;99.90;;;;;;5350806;26;20463;-70
2024/04/20 09:49:40;;;;;;;1.33;0.80;;;14.10;99.90;;;;;;5381473;26;20459;-70
2024/04/20 09:52:22;;;;;;;2.70;0.93;;;15.70;99.90;;;;;;5381022;26;20464;-70
2024/04/20 09:55:08;;;;;;;2.70;1.00;;;17.60;99.90;;;;;;5381095;26;20449;-70
2024/04/20 09:57:37;;;;;;;1.77;0.80;;;18.80;99.90;;;;;;5381690;26;20499;-70
2024/04/20 10:00:06;;;;;;;2.60;0.83;;;19.20;95.60;;;;;;5381508;26;20463;-73
2024/04/20 10:02:32;;;;;;;2.40;0.90;;;19.00;87.70;;;;;;5380858;26;20452;-72
2024/04/20 10:05:00;;;;;;;2.23;0.90;;;18.60;83.00;;;;;;5381449;26;20601;-72
2024/04/20 10:07:32;;;;;;;1.53;0.97;;;18.40;82.50;;;;;;5381244;26;20439;-72
2024/04/20 10:10:01;;;;;;;1.00;0.70;;;18.20;80.00;;;;;;5381418;26;20966;-72
2024/04/20 10:12:28;;;;;;;1.10;0.87;;;18.20;82.40;;;;;;5380957;26;21036;-72
2024/04/20 10:14:55;;;;;;;2.03;1.00;;;19.70;84.30;;;;;;5380970;26;20512;-72
2024/04/20 10:17:21;;;;;;;1.83;1.00;;;22.00;78.10;;;;;;5381488;26;20456;-72
2024/04/20 10:19:50;;;;;;;2.33;1.10;;;25.30;61.80;;;;;;5381116;26;20444;-71
2024/04/20 10:22:19;;;;;;;1.83;1.00;;;27.50;51.00;;;;;;5380558;26;20502;-71
2024/04/20 10:24:55;;;;;;;2.23;1.17;;;27.80;46.10;;;;;;5380692;26;20849;-70
2024/04/20 10:27:26;;;;;;;1.30;1.20;;;27.10;43.10;;;;;;5381164;26;21079;-72
2024/04/20 10:29:51;;;;;;;2.37;1.20;;;26.50;43.10;;;;;;5349901;26;20922;-71
2024/04/20 10:32:23;;;;;;;1.70;1.40;;;27.10;43.40;;;;;;5380651;26;20443;-70
2024/04/20 10:34:49;;;;;;;2.53;1.20;;;27.30;42.70;;;;;;5381042;26;20471;-70
2024/04/20 10:37:24;;;;;;;1.80;1.43;;;26.90;41.60;;;;;;5380895;26;20444;-70
2024/04/20 10:39:49;;;;;;;1.40;1.20;;;26.80;41.30;;;;;;5380894;26;20267;-70
2024/04/20 10:42:22;;;;;;;1.80;1.50;;;27.40;41.90;;;;;;5380726;26;20451;-70
2024/04/20 10:44:47;;;;;;;1.87;1.27;;;28.70;40.50;;;;;;5381371;26;20760;-70
2024/04/20 10:47:22;;;;;;;1.73;1.17;;;29.20;37.70;;;;;;5380728;26;20456;-69
2024/04/20 10:49:47;;;;;;;1.77;1.40;;;27.90;35.90;;;;;;5380705;26;20221;-69
2024/04/20 10:52:20;;;;;;;0.90;0.80;;;26.40;36.50;;;;;;5380339;26;20869;-68
2024/04/20 10:54:45;;;;;;;1.00;0.90;;;24.70;37.20;;;;;;5380868;26;20277;-69
2024/04/20 10:57:12;;;;;;;1.10;0.80;;;23.00;38.80;;;;;;5380926;26;20440;-68
2024/04/20 10:59:46;;;;;;;0.90;0.70;;;21.40;40.30;;;;;;5380722;26;20385;-71
2024/04/20 11:02:14;;;;;;;0.90;0.80;;;19.90;41.60;;;;;;5395032;26;20454;-70
2024/04/20 11:04:41;;;;;;;1.07;0.90;;;18.50;43.40;;;;;;5416105;26;20561;-69
2024/04/20 11:07:06;;;;;;;0.90;0.70;;;17.50;45.20;;;;;;5389548;26;20464;-70
2024/04/20 11:09:33;;;;;;;1.00;0.80;;;16.70;47.20;;;;;;5380305;26;21098;-70
2024/04/20 11:12:03;;;;;;;1.10;0.90;;;16.40;50.00;;;;;;5379808;26;20819;-69
2024/04/20 11:14:32;;;;;;;1.00;0.70;;;18.00;56.30;;;;;;5379392;26;20495;-70
2024/04/20 11:17:00;;;;;;;1.20;0.73;;;20.30;57.30;;;;;;5380398;26;20460;-70
2024/04/20 11:19:26;;;;;;;1.70;1.20;;;23.30;56.40;;;;;;5380401;26;20503;-68
2024/04/20 11:21:52;;;;;;;1.67;1.10;;;27.60;53.40;;;;;;5379486;26;20828;-68
2024/04/20 11:24:18;;;;;;;1.30;1.10;;;31.70;47.80;;;;;;5380422;26;20499;-69
2024/04/20 11:26:44;;;;;;;1.00;0.90;;;35.40;42.30;;;;;;5349660;26;20471;-69
2024/04/20 11:29:11;;;;;;;1.30;1.17;;;38.20;35.60;;;;;;5349799;26;20497;-68
2024/04/20 11:31:37;;;;;;;1.47;1.00;;;40.40;29.70;;;;;;5379553;26;20574;-68
2024/04/20 11:34:02;;;;;;;1.67;1.43;;;42.30;27.90;;;;;;5380071;26;20448;-69
2024/04/20 11:36:30;;;;;;;1.17;1.07;;;43.60;25.40;;;;;;5380071;26;20272;-69
2024/04/20 11:39:11;;;;;;;2.17;1.57;;;44.30;24.50;;;;;;5379994;26;20268;-69
2024/04/20 11:41:36;;;;;;;1.30;1.03;;;42.20;22.60;;;;;;5379685;26;20480;-69
2024/04/20 11:44:05;;;;;;;1.07;0.97;;;38.70;21.60;;;;;;5379220;26;20439;-68
2024/04/20 11:46:37;;;;;;;1.50;1.07;;;35.20;22.00;;;;;;5379468;26;20233;-68
2024/04/20 11:49:13;;;;;;;1.30;1.03;;;32.20;23.70;;;;;;5379901;26;20962;-68
2024/04/20 11:54:25;;;;;;;2.90;1.63;;;27.60;27.50;;;;;;5379760;26;20780;-68
2024/04/20 11:56:54;;;;;;;1.57;1.00;;;25.90;29.10;;;;;;5378607;26;20476;-69
2024/04/20 11:59:23;;;;;;;1.47;1.10;;;24.60;30.20;;;;;;5379380;26;20504;-69
2024/04/20 12:01:48;;;;;;;1.27;1.07;;;23.10;31.60;;;;;;5378851;26;20471;-69
2024/04/20 12:04:15;;;;;;;1.33;1.00;;;21.70;32.50;;;;;;5379578;26;20443;-69
2024/04/20 12:06:41;;;;;;;1.10;0.60;;;20.30;34.00;;;;;;5379594;26;20230;-70
2024/04/20 12:09:06;;;;;;;1.40;1.20;;;19.00;35.60;;;;;;5379276;26;20505;-70
2024/04/20 12:11:32;;;;;;;1.30;1.20;;;17.90;37.30;;;;;;5347280;26;20475;-69
2024/04/20 12:13:58;;;;;;;3.53;1.60;;;17.10;39.10;;;;;;5348712;26;20233;-70
2024/04/20 12:16:26;;;;;;;1.87;1.10;;;16.30;40.70;;;;;;5379467;26;20467;-70
2024/04/20 12:18:52;;;;;;;2.60;1.27;;;15.70;42.30;;;;;;5379990;26;20512;-70
2024/04/20 12:21:18;;;;;;;2.07;1.20;;;15.20;43.70;;;;;;5382178;26;20463;-70
2024/04/20 12:23:44;;;;;;;1.60;1.50;;;14.90;45.60;;;;;;5381543;26;20488;-69
2024/04/20 12:26:10;;;;;;;2.20;1.20;;;14.80;47.40;;;;;;5350923;26;20265;-70
2024/04/20 12:28:36;;;;;;;1.63;1.37;;;14.90;49.70;;;;;;5352262;26;20217;-69
2024/04/20 12:31:04;;;;;;;2.97;1.20;;;15.30;52.10;;;;;;5382425;26;20511;-70
2024/04/20 12:33:30;;;;;;;1.50;1.20;;;17.40;56.10;;;;;;5383024;26;20440;-70
2024/04/20 12:35:56;;;;;;;6.03;1.67;;;19.60;50.00;;;;;;5381718;26;20499;-70
2024/04/20 12:38:24;;;;;;;2.87;1.33;;;20.80;45.50;;;;;;5383489;26;20456;-70
2024/04/20 12:40:50;;;;;;;1.60;1.20;;;21.20;43.40;;;;;;5382770;26;20562;-70
2024/04/20 12:43:16;;;;;;;3.20;1.77;;;21.00;42.60;;;;;;5382259;26;20455;-70
2024/04/20 12:45:41;;;;;;;3.63;1.30;;;21.50;42.00;;;;;;5382865;26;20251;-70
2024/04/20 12:48:08;;;;;;;1.40;1.10;;;22.00;42.20;;;;;;5381304;26;20271;-70
2024/04/20 12:50:33;;;;;;;2.87;1.33;;;22.20;42.60;;;;;;5382750;26;20567;-70